Time;durP1;ratioP1;P1;durP2;ratioP2;P2;SDS_P1;SDS_P2;PMS_P1;PMS_P2;Temp;Humidity;BMP_temperature;BMP_pressure;BME280_temperature;BME280_humidity;BME280_pressure;Samples;Min_cycle;Max_cycle;Signal;HPM_P1;HPM_P2
2023/03/07 00:00:18;;;;;;;0.20;0.20;;;;;;;;;;4997020;28;20208;-72
2023/03/07 00:02:49;;;;;;;0.20;0.20;;;;;;;;;;5005615;28;20204;-73
2023/03/07 00:05:16;;;;;;;0.63;0.63;;;;;;;;;;4997067;28;20302;-72
2023/03/07 00:07:42;;;;;;;0.37;0.37;;;;;;;;;;5005800;28;20516;-73
2023/03/07 00:10:09;;;;;;;0.20;0.20;;;;;;;;;;5006623;28;20208;-73
2023/03/07 00:12:36;;;;;;;1.20;1.20;;;;;;;;;;4979032;28;20312;-73
2023/03/07 00:15:03;;;;;;;0.20;0.20;;;;;;;;;;5006484;28;20244;-72
2023/03/07 00:17:29;;;;;;;0.23;0.23;;;;;;;;;;4995434;28;20250;-73
2023/03/07 00:19:57;;;;;;;0.83;0.83;;;;;;;;;;5006420;28;20214;-73
2023/03/07 00:22:23;;;;;;;0.20;0.20;;;;;;;;;;4995306;28;20313;-74
2023/03/07 00:24:50;;;;;;;0.20;0.20;;;;;;;;;;5006458;28;20279;-73
2023/03/07 00:27:16;;;;;;;0.30;0.30;;;;;;;;;;4995282;28;20305;-73
2023/03/07 00:29:42;;;;;;;0.20;0.20;;;;;;;;;;5006381;28;20239;-73
2023/03/07 00:32:09;;;;;;;0.40;0.37;;;;;;;;;;4995198;28;20259;-73
2023/03/07 00:34:35;;;;;;;0.30;0.30;;;;;;;;;;5006299;28;20279;-73
2023/03/07 00:37:03;;;;;;;0.50;0.50;;;;;;;;;;4995012;28;20242;-73
2023/03/07 00:39:29;;;;;;;0.20;0.20;;;;;;;;;;5006099;28;20449;-73
2023/03/07 00:41:56;;;;;;;0.20;0.20;;;;;;;;;;4994968;28;20266;-73
2023/03/07 00:44:24;;;;;;;0.20;0.20;;;;;;;;;;5005970;28;20213;-73
2023/03/07 00:46:50;;;;;;;0.63;0.63;;;;;;;;;;4995000;28;20567;-73
2023/03/07 00:49:16;;;;;;;0.27;0.27;;;;;;;;;;5005829;28;20254;-73
2023/03/07 00:51:43;;;;;;;0.20;0.20;;;;;;;;;;4995095;28;20465;-72
2023/03/07 00:54:11;;;;;;;0.23;0.23;;;;;;;;;;5005643;28;20445;-73
2023/03/07 00:56:37;;;;;;;0.20;0.20;;;;;;;;;;4994819;28;20239;-73
2023/03/07 00:59:04;;;;;;;0.20;0.20;;;;;;;;;;5004194;28;20213;-73
2023/03/07 01:01:30;;;;;;;0.30;0.30;;;;;;;;;;4994991;28;20499;-73
2023/03/07 01:03:56;;;;;;;0.20;0.20;;;;;;;;;;5005189;28;20277;-72
2023/03/07 01:06:24;;;;;;;0.20;0.20;;;;;;;;;;4994902;28;20309;-73
2023/03/07 01:08:51;;;;;;;0.50;0.50;;;;;;;;;;5005222;28;20240;-73
2023/03/07 01:11:19;;;;;;;0.20;0.20;;;;;;;;;;4994999;28;20245;-72
2023/03/07 01:13:45;;;;;;;0.23;0.23;;;;;;;;;;5004793;28;20282;-73
2023/03/07 01:16:13;;;;;;;0.20;0.20;;;;;;;;;;4994590;28;20254;-73
2023/03/07 01:18:40;;;;;;;0.20;0.20;;;;;;;;;;5004968;28;20238;-73
2023/03/07 01:21:14;;;;;;;0.30;0.30;;;;;;;;;;4994899;28;20318;-73
2023/03/07 01:23:40;;;;;;;0.20;0.20;;;;;;;;;;5004606;28;20214;-73
2023/03/07 01:26:07;;;;;;;0.20;0.20;;;;;;;;;;4994666;28;20303;-72
2023/03/07 01:28:34;;;;;;;0.30;0.30;;;;;;;;;;5004359;28;20278;-72
2023/03/07 01:31:01;;;;;;;0.20;0.20;;;;;;;;;;4994586;28;20319;-72
2023/03/07 01:33:27;;;;;;;0.20;0.20;;;;;;;;;;5004376;28;20457;-72
2023/03/07 01:35:53;;;;;;;0.27;0.27;;;;;;;;;;4994605;28;20625;-72
2023/03/07 01:38:20;;;;;;;0.43;0.43;;;;;;;;;;5004295;28;20536;-72
2023/03/07 01:40:46;;;;;;;0.20;0.20;;;;;;;;;;4994391;28;20258;-72
2023/03/07 01:43:21;;;;;;;0.20;0.20;;;;;;;;;;5004083;28;20231;-72
2023/03/07 01:46:17;;;;;;;0.30;0.30;;;;;;;;;;4994506;28;20249;-72
2023/03/07 01:48:45;;;;;;;0.20;0.20;;;;;;;;;;4925771;29;20415;-72
2023/03/07 01:51:12;;;;;;;0.60;0.60;;;;;;;;;;4976008;28;20310;-73
2023/03/07 01:53:38;;;;;;;0.20;0.20;;;;;;;;;;5004229;28;20437;-72
2023/03/07 01:56:06;;;;;;;0.20;0.20;;;;;;;;;;4993967;28;20311;-72
2023/03/07 01:58:33;;;;;;;0.27;0.27;;;;;;;;;;5004198;28;20208;-71
2023/03/07 02:01:00;;;;;;;0.30;0.30;;;;;;;;;;4994344;28;20246;-72
2023/03/07 02:03:30;;;;;;;0.20;0.20;;;;;;;;;;5004116;28;20459;-72
2023/03/07 02:05:59;;;;;;;0.20;0.20;;;;;;;;;;4994012;28;20315;-72
2023/03/07 02:08:27;;;;;;;0.20;0.20;;;;;;;;;;5003710;28;20278;-72
2023/03/07 02:10:54;;;;;;;0.20;0.20;;;;;;;;;;4994026;28;20559;-72
2023/03/07 02:13:20;;;;;;;0.23;0.23;;;;;;;;;;5003845;28;20275;-72
2023/03/07 02:15:49;;;;;;;0.20;0.20;;;;;;;;;;4994272;28;20581;-72
2023/03/07 02:18:17;;;;;;;0.77;0.77;;;;;;;;;;5003693;28;20561;-72
2023/03/07 02:20:46;;;;;;;0.20;0.20;;;;;;;;;;4994291;28;20302;-72
2023/03/07 02:23:19;;;;;;;0.23;0.23;;;;;;;;;;5003712;28;20240;-73
2023/03/07 02:25:49;;;;;;;0.33;0.33;;;;;;;;;;4994121;28;20520;-72
2023/03/07 02:28:17;;;;;;;0.20;0.20;;;;;;;;;;5003662;28;20280;-72
2023/03/07 02:30:52;;;;;;;0.20;0.20;;;;;;;;;;4993866;28;20243;-72
2023/03/07 02:33:21;;;;;;;0.20;0.20;;;;;;;;;;5003373;28;20194;-73
2023/03/07 02:35:48;;;;;;;0.37;0.37;;;;;;;;;;4994066;28;20245;-72
2023/03/07 02:38:14;;;;;;;0.20;0.20;;;;;;;;;;5003298;28;20245;-72
2023/03/07 02:40:41;;;;;;;0.20;0.20;;;;;;;;;;4994105;28;20486;-72
2023/03/07 02:43:08;;;;;;;0.20;0.20;;;;;;;;;;5003159;28;20266;-72
2023/03/07 02:45:36;;;;;;;0.60;0.60;;;;;;;;;;4993995;28;20247;-72
2023/03/07 02:48:02;;;;;;;1.13;1.13;;;;;;;;;;5003061;28;20267;-72
2023/03/07 02:50:28;;;;;;;1.60;0.70;;;;;;;;;;4993975;28;21856;-72
2023/03/07 02:52:55;;;;;;;0.73;0.73;;;;;;;;;;5002998;28;20233;-73
2023/03/07 02:55:22;;;;;;;0.43;0.43;;;;;;;;;;4993882;28;20238;-72
2023/03/07 02:57:48;;;;;;;0.30;0.30;;;;;;;;;;5003198;28;20193;-72
2023/03/07 03:00:16;;;;;;;0.83;0.83;;;;;;;;;;4994059;28;20240;-71
2023/03/07 03:02:43;;;;;;;0.50;0.50;;;;;;;;;;5003102;28;20263;-72
2023/03/07 03:05:10;;;;;;;0.20;0.20;;;;;;;;;;4994024;28;20278;-70
2023/03/07 03:07:36;;;;;;;1.27;1.27;;;;;;;;;;5002547;28;20255;-72
2023/03/07 03:10:03;;;;;;;0.67;0.67;;;;;;;;;;5004050;28;20286;-72
2023/03/07 03:12:29;;;;;;;0.30;0.30;;;;;;;;;;4992828;28;20243;-72
2023/03/07 03:14:55;;;;;;;1.37;0.93;;;;;;;;;;5004059;28;20245;-72
2023/03/07 03:17:22;;;;;;;0.30;0.30;;;;;;;;;;4992828;28;20639;-73
2023/03/07 03:19:50;;;;;;;0.57;0.57;;;;;;;;;;5004004;28;20209;-74
2023/03/07 03:22:16;;;;;;;0.20;0.20;;;;;;;;;;4993350;28;20470;-73
2023/03/07 03:24:43;;;;;;;0.27;0.27;;;;;;;;;;5007414;28;20207;-73
2023/03/07 03:27:09;;;;;;;0.20;0.20;;;;;;;;;;4996311;28;20235;-73
2023/03/07 03:29:36;;;;;;;2.23;2.03;;;;;;;;;;5007376;28;20239;-71
2023/03/07 03:32:02;;;;;;;0.30;0.30;;;;;;;;;;4996345;28;20319;-71
2023/03/07 03:34:29;;;;;;;1.83;1.70;;;;;;;;;;5007383;28;20207;-74
2023/03/07 03:36:56;;;;;;;0.20;0.20;;;;;;;;;;4996269;28;20306;-74
2023/03/07 03:39:23;;;;;;;0.47;0.47;;;;;;;;;;5007015;28;20278;-73
2023/03/07 03:41:49;;;;;;;1.43;1.43;;;;;;;;;;4996234;28;20291;-74
2023/03/07 03:44:16;;;;;;;0.20;0.20;;;;;;;;;;5007177;28;20279;-74
2023/03/07 03:46:42;;;;;;;0.20;0.20;;;;;;;;;;4996256;28;20236;-73
2023/03/07 03:49:11;;;;;;;0.30;0.30;;;;;;;;;;5006849;28;20283;-73
2023/03/07 03:51:38;;;;;;;0.87;0.70;;;;;;;;;;4996292;28;20241;-73
2023/03/07 03:54:05;;;;;;;0.97;0.67;;;;;;;;;;5006757;28;20477;-73
2023/03/07 03:56:32;;;;;;;0.30;0.30;;;;;;;;;;4996026;28;20471;-73
2023/03/07 03:58:58;;;;;;;0.20;0.20;;;;;;;;;;5006396;28;20199;-73
2023/03/07 04:01:26;;;;;;;0.30;0.30;;;;;;;;;;4996254;28;20592;-74
2023/03/07 04:03:53;;;;;;;0.50;0.50;;;;;;;;;;5006402;28;20213;-72
2023/03/07 04:06:20;;;;;;;0.67;0.67;;;;;;;;;;4995994;28;20247;-74
2023/03/07 04:08:47;;;;;;;1.20;1.13;;;;;;;;;;5006398;28;20460;-74
2023/03/07 04:11:14;;;;;;;0.30;0.30;;;;;;;;;;4996157;28;20243;-74
2023/03/07 04:13:41;;;;;;;0.20;0.20;;;;;;;;;;5005950;28;20206;-74
2023/03/07 04:16:07;;;;;;;0.23;0.23;;;;;;;;;;4996072;28;20309;-74
2023/03/07 04:18:34;;;;;;;0.20;0.20;;;;;;;;;;5006104;28;20279;-73
2023/03/07 04:21:00;;;;;;;0.20;0.20;;;;;;;;;;4996150;28;20256;-74
2023/03/07 04:23:27;;;;;;;1.23;1.23;;;;;;;;;;5005651;28;20282;-74
2023/03/07 04:25:55;;;;;;;0.87;0.87;;;;;;;;;;4996084;28;20267;-73
2023/03/07 04:28:23;;;;;;;1.17;0.77;;;;;;;;;;5005798;28;20506;-74
2023/03/07 04:30:51;;;;;;;0.57;0.57;;;;;;;;;;4996171;28;20264;-74
2023/03/07 04:33:19;;;;;;;0.23;0.23;;;;;;;;;;5005534;28;20229;-73
2023/03/07 04:35:46;;;;;;;0.63;0.60;;;;;;;;;;4995772;28;20314;-74
2023/03/07 04:38:12;;;;;;;0.50;0.50;;;;;;;;;;5005590;28;20232;-74
2023/03/07 04:40:39;;;;;;;0.50;0.50;;;;;;;;;;4996016;28;20248;-74
2023/03/07 04:43:05;;;;;;;0.20;0.20;;;;;;;;;;5005361;28;20241;-74
2023/03/07 04:45:34;;;;;;;0.20;0.20;;;;;;;;;;4995785;28;20308;-74
2023/03/07 04:48:00;;;;;;;0.60;0.60;;;;;;;;;;5004786;28;20231;-74
2023/03/07 04:50:27;;;;;;;0.23;0.23;;;;;;;;;;4996154;28;20299;-74
2023/03/07 04:52:53;;;;;;;4.23;1.60;;;;;;;;;;5005199;28;20223;-73
2023/03/07 04:55:20;;;;;;;0.20;0.20;;;;;;;;;;4995505;28;20238;-73
2023/03/07 04:57:46;;;;;;;0.20;0.20;;;;;;;;;;5004703;28;20258;-74
2023/03/07 05:00:13;;;;;;;0.30;0.30;;;;;;;;;;4995542;28;20289;-73
2023/03/07 05:02:41;;;;;;;0.20;0.20;;;;;;;;;;5004381;28;20235;-73
2023/03/07 05:05:08;;;;;;;0.73;0.73;;;;;;;;;;5005333;28;20244;-73
2023/03/07 05:07:34;;;;;;;0.20;0.20;;;;;;;;;;4994422;28;20239;-73
2023/03/07 05:10:00;;;;;;;0.20;0.20;;;;;;;;;;5005158;28;20209;-73
2023/03/07 05:12:27;;;;;;;0.20;0.20;;;;;;;;;;4994366;28;20243;-74
2023/03/07 05:14:53;;;;;;;0.20;0.20;;;;;;;;;;5005516;28;20517;-71
2023/03/07 05:17:20;;;;;;;0.20;0.20;;;;;;;;;;4994303;28;20252;-73
2023/03/07 05:19:47;;;;;;;0.20;0.20;;;;;;;;;;5005330;28;20245;-71
2023/03/07 05:22:14;;;;;;;0.20;0.20;;;;;;;;;;4994017;28;20242;-71
2023/03/07 05:24:40;;;;;;;0.20;0.20;;;;;;;;;;5004981;28;20235;-71
2023/03/07 05:27:06;;;;;;;0.20;0.20;;;;;;;;;;4994080;28;20325;-71
2023/03/07 05:29:33;;;;;;;0.20;0.20;;;;;;;;;;5005267;28;20453;-71
2023/03/07 05:32:00;;;;;;;0.20;0.20;;;;;;;;;;4994047;28;20510;-72
2023/03/07 05:34:26;;;;;;;0.30;0.30;;;;;;;;;;5004830;28;20211;-71
2023/03/07 05:36:55;;;;;;;0.57;0.57;;;;;;;;;;4994098;28;20239;-71
2023/03/07 05:39:22;;;;;;;0.20;0.20;;;;;;;;;;5004808;28;20239;-71
2023/03/07 05:41:48;;;;;;;0.20;0.20;;;;;;;;;;4994142;28;20243;-72
2023/03/07 05:44:14;;;;;;;0.40;0.40;;;;;;;;;;5004507;28;20246;-72
2023/03/07 05:46:41;;;;;;;0.20;0.20;;;;;;;;;;4993357;28;20259;-71
2023/03/07 05:49:07;;;;;;;0.20;0.20;;;;;;;;;;5004613;28;20730;-71
2023/03/07 05:51:33;;;;;;;0.20;0.20;;;;;;;;;;4994052;28;20265;-71
2023/03/07 05:54:01;;;;;;;0.20;0.20;;;;;;;;;;5004154;28;20209;-71
2023/03/07 05:56:28;;;;;;;0.20;0.20;;;;;;;;;;4993760;28;20265;-71
2023/03/07 05:58:54;;;;;;;0.40;0.40;;;;;;;;;;5004310;28;20454;-71
2023/03/07 06:01:20;;;;;;;0.30;0.30;;;;;;;;;;4993916;28;20256;-73
2023/03/07 06:03:47;;;;;;;0.30;0.30;;;;;;;;;;5003949;28;20278;-72
2023/03/07 06:06:13;;;;;;;0.20;0.20;;;;;;;;;;4994060;28;20523;-72
2023/03/07 06:08:40;;;;;;;0.20;0.20;;;;;;;;;;5003986;28;20437;-72
2023/03/07 06:11:07;;;;;;;0.20;0.20;;;;;;;;;;4994051;28;20250;-72
2023/03/07 06:13:34;;;;;;;0.20;0.20;;;;;;;;;;5004021;28;20454;-72
2023/03/07 06:16:00;;;;;;;0.20;0.20;;;;;;;;;;4994095;28;20259;-72
2023/03/07 06:18:27;;;;;;;0.20;0.20;;;;;;;;;;5003529;28;20274;-72
2023/03/07 06:20:57;;;;;;;0.40;0.40;;;;;;;;;;4994074;28;20281;-73
2023/03/07 06:23:24;;;;;;;0.20;0.20;;;;;;;;;;5003815;28;20429;-72
2023/03/07 06:25:50;;;;;;;0.20;0.20;;;;;;;;;;4994065;28;20279;-72
2023/03/07 06:28:18;;;;;;;0.30;0.30;;;;;;;;;;5003377;28;20291;-72
2023/03/07 06:30:44;;;;;;;0.20;0.20;;;;;;;;;;4993856;28;20302;-72
2023/03/07 06:33:11;;;;;;;0.27;0.27;;;;;;;;;;5003536;28;20248;-72
2023/03/07 06:35:38;;;;;;;0.23;0.23;;;;;;;;;;4994210;28;20258;-72
2023/03/07 06:38:05;;;;;;;0.30;0.30;;;;;;;;;;5003221;28;20275;-73
2023/03/07 06:40:31;;;;;;;0.20;0.20;;;;;;;;;;4993971;28;20243;-73
2023/03/07 06:42:57;;;;;;;0.20;0.20;;;;;;;;;;5003369;28;20278;-72
2023/03/07 06:45:25;;;;;;;2.13;2.03;;;;;;;;;;4994167;28;20219;-72
2023/03/07 06:47:52;;;;;;;0.30;0.30;;;;;;;;;;5002945;28;20236;-72
2023/03/07 06:50:18;;;;;;;0.20;0.20;;;;;;;;;;4994190;28;20244;-71
2023/03/07 06:52:45;;;;;;;0.20;0.20;;;;;;;;;;5002837;28;20209;-72
2023/03/07 06:55:11;;;;;;;0.20;0.20;;;;;;;;;;4993899;28;20306;-71
2023/03/07 06:57:37;;;;;;;0.20;0.20;;;;;;;;;;5004386;28;20257;-72
2023/03/07 07:00:04;;;;;;;0.20;0.20;;;;;;;;;;5007949;28;20208;-72
2023/03/07 07:02:32;;;;;;;0.20;0.20;;;;;;;;;;4996839;28;20244;-72
2023/03/07 07:04:59;;;;;;;0.67;0.67;;;;;;;;;;5007785;28;20251;-72
2023/03/07 07:07:25;;;;;;;0.20;0.20;;;;;;;;;;4996664;28;20240;-72
2023/03/07 07:09:52;;;;;;;0.20;0.20;;;;;;;;;;5007833;28;20425;-72
2023/03/07 07:12:18;;;;;;;0.20;0.20;;;;;;;;;;4996678;28;20251;-72
2023/03/07 07:14:45;;;;;;;0.20;0.20;;;;;;;;;;5007719;28;20236;-72
2023/03/07 07:17:11;;;;;;;0.20;0.20;;;;;;;;;;4996625;28;20307;-72
2023/03/07 07:19:39;;;;;;;0.20;0.20;;;;;;;;;;5007551;28;20236;-72
2023/03/07 07:22:07;;;;;;;0.27;0.27;;;;;;;;;;4996596;28;20312;-72
2023/03/07 07:24:33;;;;;;;0.20;0.20;;;;;;;;;;5007650;28;20208;-72
2023/03/07 07:27:00;;;;;;;0.20;0.20;;;;;;;;;;4996407;28;20512;-72
2023/03/07 07:29:26;;;;;;;0.20;0.20;;;;;;;;;;5007295;28;20292;-72
2023/03/07 07:31:52;;;;;;;0.20;0.20;;;;;;;;;;4996411;28;20251;-71
2023/03/07 07:34:19;;;;;;;0.20;0.20;;;;;;;;;;5007044;28;20276;-73
2023/03/07 07:36:47;;;;;;;1.03;1.03;;;;;;;;;;4996544;28;20503;-72
2023/03/07 07:39:14;;;;;;;0.20;0.20;;;;;;;;;;5007098;28;20230;-72
2023/03/07 07:41:40;;;;;;;0.30;0.30;;;;;;;;;;4996266;28;20265;-73
2023/03/07 07:44:07;;;;;;;0.20;0.20;;;;;;;;;;5006713;28;20524;-72
2023/03/07 07:46:33;;;;;;;0.20;0.20;;;;;;;;;;4996275;28;20245;-72
2023/03/07 07:48:59;;;;;;;0.20;0.20;;;;;;;;;;5006378;28;20264;-73
2023/03/07 07:51:26;;;;;;;0.20;0.20;;;;;;;;;;4996547;28;20632;-73
2023/03/07 07:53:53;;;;;;;0.37;0.37;;;;;;;;;;5006420;28;20209;-73
2023/03/07 07:56:20;;;;;;;0.20;0.20;;;;;;;;;;4996164;28;20267;-72
2023/03/07 07:58:46;;;;;;;0.20;0.20;;;;;;;;;;5006569;28;20398;-73
2023/03/07 08:01:14;;;;;;;0.20;0.20;;;;;;;;;;4996458;28;20308;-72
2023/03/07 08:03:40;;;;;;;0.20;0.20;;;;;;;;;;5006434;28;20253;-73
2023/03/07 08:06:07;;;;;;;0.20;0.20;;;;;;;;;;4996056;28;20252;-72
2023/03/07 08:08:33;;;;;;;0.20;0.20;;;;;;;;;;5005375;28;20300;-73
2023/03/07 08:11:01;;;;;;;0.20;0.20;;;;;;;;;;4996364;28;20501;-73
2023/03/07 08:13:28;;;;;;;0.20;0.20;;;;;;;;;;5005773;28;20248;-72
2023/03/07 08:15:54;;;;;;;0.30;0.30;;;;;;;;;;4996234;28;20503;-73
2023/03/07 08:18:21;;;;;;;0.10;0.10;;;;;;;;;;5005967;28;20227;-72
2023/03/07 08:20:47;;;;;;;0.37;0.37;;;;;;;;;;4996011;28;20257;-71
2023/03/07 08:23:14;;;;;;;0.20;0.20;;;;;;;;;;5005559;28;20276;-72
2023/03/07 08:25:40;;;;;;;0.20;0.20;;;;;;;;;;4996361;28;20512;-72
2023/03/07 08:28:08;;;;;;;0.60;0.57;;;;;;;;;;5005244;28;20239;-72
2023/03/07 08:30:35;;;;;;;0.50;0.50;;;;;;;;;;4996046;28;20594;-72
2023/03/07 08:33:02;;;;;;;0.20;0.20;;;;;;;;;;5005512;28;20197;-71
2023/03/07 08:35:28;;;;;;;0.20;0.20;;;;;;;;;;4996272;28;20448;-72
2023/03/07 08:37:55;;;;;;;0.30;0.30;;;;;;;;;;5005431;28;20504;-72
2023/03/07 08:40:23;;;;;;;0.30;0.30;;;;;;;;;;4996280;28;20392;-72
2023/03/07 08:42:50;;;;;;;0.27;0.27;;;;;;;;;;5005012;28;20247;-74
2023/03/07 08:45:18;;;;;;;1.27;1.23;;;;;;;;;;4996163;28;20247;-71
2023/03/07 08:47:44;;;;;;;0.20;0.20;;;;;;;;;;5004823;28;20286;-70
2023/03/07 08:50:11;;;;;;;0.20;0.20;;;;;;;;;;4996198;28;20221;-70
2023/03/07 08:52:37;;;;;;;0.20;0.20;;;;;;;;;;5004747;28;20197;-70
2023/03/07 08:55:04;;;;;;;0.17;0.17;;;;;;;;;;5005736;28;20616;-69
2023/03/07 08:57:32;;;;;;;0.20;0.20;;;;;;;;;;4994814;28;20253;-70
2023/03/07 08:59:58;;;;;;;0.20;0.20;;;;;;;;;;5005802;28;20205;-70
2023/03/07 09:02:26;;;;;;;0.20;0.20;;;;;;;;;;4994677;28;20305;-69
2023/03/07 09:04:52;;;;;;;0.80;0.80;;;;;;;;;;5005736;28;20444;-70
2023/03/07 09:07:19;;;;;;;0.30;0.30;;;;;;;;;;4994676;28;20245;-71
2023/03/07 09:09:45;;;;;;;0.67;0.67;;;;;;;;;;5005647;28;20555;-70
2023/03/07 09:12:11;;;;;;;0.20;0.20;;;;;;;;;;4994477;28;20532;-69
2023/03/07 09:14:38;;;;;;;0.37;0.37;;;;;;;;;;5005654;28;20448;-70
2023/03/07 09:17:04;;;;;;;0.20;0.20;;;;;;;;;;4994435;28;20257;-69
2023/03/07 09:19:32;;;;;;;0.20;0.20;;;;;;;;;;5004998;28;20205;-70
2023/03/07 09:21:59;;;;;;;0.20;0.20;;;;;;;;;;4993891;28;20317;-69
2023/03/07 09:24:25;;;;;;;0.20;0.20;;;;;;;;;;5005079;28;20250;-70
2023/03/07 09:26:52;;;;;;;0.20;0.20;;;;;;;;;;4994282;28;20588;-69
2023/03/07 09:29:18;;;;;;;0.40;0.40;;;;;;;;;;5004814;28;20226;-69
2023/03/07 09:31:45;;;;;;;0.20;0.20;;;;;;;;;;4994290;28;20303;-69
2023/03/07 09:34:11;;;;;;;0.40;0.40;;;;;;;;;;5004592;28;20206;-69
2023/03/07 09:36:39;;;;;;;0.20;0.20;;;;;;;;;;4994368;28;20244;-69
2023/03/07 09:39:06;;;;;;;0.53;0.53;;;;;;;;;;5004859;28;20280;-69
2023/03/07 09:41:48;;;;;;;0.20;0.20;;;;;;;;;;4994107;28;20242;-70
2023/03/07 09:44:20;;;;;;;0.33;0.33;;;;;;;;;;5004581;28;20277;-69
2023/03/07 09:46:53;;;;;;;0.43;0.43;;;;;;;;;;4993960;28;20308;-70
2023/03/07 09:49:20;;;;;;;0.23;0.23;;;;;;;;;;5004507;28;20248;-71
2023/03/07 09:51:50;;;;;;;0.33;0.33;;;;;;;;;;4993844;28;20260;-69
2023/03/07 09:54:18;;;;;;;0.20;0.20;;;;;;;;;;5004464;28;20213;-70
2023/03/07 09:56:47;;;;;;;0.83;0.70;;;;;;;;;;4993761;28;20456;-70
2023/03/07 09:59:21;;;;;;;0.70;0.70;;;;;;;;;;5004506;28;20500;-69
2023/03/07 10:01:49;;;;;;;0.30;0.30;;;;;;;;;;4993898;28;20268;-70
2023/03/07 10:04:19;;;;;;;0.30;0.30;;;;;;;;;;5004548;28;20396;-69
2023/03/07 10:06:48;;;;;;;0.20;0.20;;;;;;;;;;4993765;28;20516;-70
2023/03/07 10:09:18;;;;;;;0.20;0.20;;;;;;;;;;5004245;28;20488;-71
2023/03/07 10:11:59;;;;;;;1.23;1.13;;;;;;;;;;4993631;28;20245;-70
2023/03/07 10:14:35;;;;;;;0.50;0.50;;;;;;;;;;5004453;28;20251;-70
2023/03/07 10:17:07;;;;;;;0.90;0.87;;;;;;;;;;4993456;28;20248;-70
2023/03/07 10:19:37;;;;;;;0.20;0.20;;;;;;;;;;5004340;28;20205;-69
2023/03/07 10:22:05;;;;;;;0.33;0.33;;;;;;;;;;4993458;28;20515;-69
2023/03/07 10:24:38;;;;;;;0.53;0.53;;;;;;;;;;5004218;28;20280;-69
2023/03/07 10:27:06;;;;;;;0.20;0.20;;;;;;;;;;4993285;28;20248;-69
2023/03/07 10:29:36;;;;;;;0.50;0.50;;;;;;;;;;5004343;28;20233;-69
2023/03/07 10:32:06;;;;;;;0.20;0.20;;;;;;;;;;4993011;28;20245;-70
2023/03/07 10:34:32;;;;;;;0.20;0.20;;;;;;;;;;5003948;28;20278;-69
2023/03/07 10:37:00;;;;;;;0.47;0.47;;;;;;;;;;4993319;28;20304;-69
2023/03/07 10:39:30;;;;;;;0.40;0.40;;;;;;;;;;5004160;28;20206;-69
2023/03/07 10:41:57;;;;;;;0.40;0.40;;;;;;;;;;4993156;28;20300;-69
2023/03/07 10:44:26;;;;;;;0.20;0.20;;;;;;;;;;5004149;28;20220;-69
2023/03/07 10:46:55;;;;;;;0.20;0.20;;;;;;;;;;4993046;28;20242;-73
2023/03/07 10:49:23;;;;;;;0.30;0.30;;;;;;;;;;5003903;28;20235;-74
2023/03/07 10:51:53;;;;;;;0.20;0.20;;;;;;;;;;4993120;28;20245;-70
2023/03/07 10:54:21;;;;;;;0.20;0.20;;;;;;;;;;5004025;28;20255;-71
2023/03/07 10:57:04;;;;;;;0.20;0.20;;;;;;;;;;4993016;28;20269;-70
2023/03/07 10:59:32;;;;;;;0.20;0.20;;;;;;;;;;5003928;28;20204;-69
2023/03/07 11:01:59;;;;;;;0.63;0.63;;;;;;;;;;4992935;28;20275;-69
2023/03/07 11:04:27;;;;;;;0.67;0.67;;;;;;;;;;5004018;28;20233;-60
2023/03/07 11:06:54;;;;;;;1.53;1.53;;;;;;;;;;4992901;28;20250;-55
2023/03/07 11:09:23;;;;;;;1.17;1.17;;;;;;;;;;5003469;28;20240;-69
2023/03/07 11:11:51;;;;;;;0.67;0.67;;;;;;;;;;4992848;28;20238;-69
2023/03/07 11:14:20;;;;;;;0.83;0.83;;;;;;;;;;5003578;28;20252;-68
2023/03/07 11:16:51;;;;;;;0.20;0.20;;;;;;;;;;4992964;28;20496;-70
2023/03/07 11:19:32;;;;;;;0.20;0.20;;;;;;;;;;5003817;28;20233;-71
2023/03/07 11:21:59;;;;;;;0.20;0.20;;;;;;;;;;4992810;28;20257;-71
2023/03/07 11:24:27;;;;;;;0.20;0.20;;;;;;;;;;5003432;28;20272;-71
2023/03/07 11:26:53;;;;;;;0.20;0.20;;;;;;;;;;4992903;28;20246;-72
2023/03/07 11:29:21;;;;;;;0.13;0.13;;;;;;;;;;5003496;28;20249;-70
2023/03/07 11:31:52;;;;;;;0.20;0.20;;;;;;;;;;4992917;28;20301;-69
2023/03/07 11:34:24;;;;;;;0.13;0.13;;;;;;;;;;5003469;28;20213;-69
2023/03/07 11:36:54;;;;;;;0.20;0.20;;;;;;;;;;4992899;28;20437;-68
2023/03/07 11:39:24;;;;;;;0.50;0.50;;;;;;;;;;5003418;28;20235;-68
2023/03/07 11:41:53;;;;;;;0.53;0.53;;;;;;;;;;4992869;28;20260;-69
2023/03/07 11:44:31;;;;;;;0.30;0.30;;;;;;;;;;5005536;28;20236;-70
2023/03/07 11:47:07;;;;;;;0.53;0.53;;;;;;;;;;4996009;28;20257;-69
2023/03/07 11:49:56;;;;;;;1.07;0.93;;;;;;;;;;5007124;28;20257;-69
2023/03/07 11:52:29;;;;;;;0.33;0.27;;;;;;;;;;4995887;28;20276;-70
2023/03/07 11:55:02;;;;;;;1.70;1.07;;;;;;;;;;5006868;28;20249;-70
2023/03/07 11:57:46;;;;;;;0.30;0.30;;;;;;;;;;4995886;28;20261;-70
2023/03/07 12:00:23;;;;;;;0.10;0.10;;;;;;;;;;4998355;28;20277;-71
2023/03/07 12:02:58;;;;;;;0.33;0.33;;;;;;;;;;5006822;28;20217;-70
2023/03/07 12:05:35;;;;;;;0.40;0.40;;;;;;;;;;4996796;28;20215;-70
2023/03/07 12:08:18;;;;;;;0.63;0.63;;;;;;;;;;5005985;28;20233;-70
2023/03/07 12:10:49;;;;;;;0.23;0.23;;;;;;;;;;4996650;28;20247;-70
2023/03/07 12:13:20;;;;;;;0.10;0.10;;;;;;;;;;5006039;28;20233;-70
2023/03/07 12:15:51;;;;;;;1.13;1.13;;;;;;;;;;4996468;28;20261;-70
2023/03/07 12:18:27;;;;;;;0.93;0.93;;;;;;;;;;5005998;28;20227;-70
2023/03/07 12:21:00;;;;;;;0.70;0.70;;;;;;;;;;4996255;28;20309;-70
2023/03/07 12:23:32;;;;;;;0.13;0.13;;;;;;;;;;5005753;28;20374;-70
2023/03/07 12:25:59;;;;;;;0.10;0.10;;;;;;;;;;4996266;28;20299;-70
2023/03/07 12:28:27;;;;;;;0.10;0.10;;;;;;;;;;5005762;28;20278;-70
2023/03/07 12:31:02;;;;;;;0.40;0.40;;;;;;;;;;4996017;28;20266;-70
2023/03/07 12:33:36;;;;;;;0.20;0.20;;;;;;;;;;5005585;28;20266;-70
2023/03/07 12:36:04;;;;;;;0.73;0.73;;;;;;;;;;4995749;28;20266;-70
2023/03/07 12:38:37;;;;;;;0.20;0.20;;;;;;;;;;5005510;28;20217;-71
2023/03/07 12:41:05;;;;;;;0.37;0.37;;;;;;;;;;4995699;28;20243;-71
2023/03/07 12:43:33;;;;;;;1.17;0.83;;;;;;;;;;5005357;28;20233;-70
2023/03/07 12:46:05;;;;;;;0.40;0.40;;;;;;;;;;4995732;28;20296;-71
2023/03/07 12:48:38;;;;;;;0.20;0.20;;;;;;;;;;5005221;28;20198;-71
2023/03/07 12:51:06;;;;;;;0.87;0.87;;;;;;;;;;4995638;28;20241;-70
2023/03/07 12:53:34;;;;;;;0.50;0.50;;;;;;;;;;5005191;28;20277;-71
2023/03/07 12:56:05;;;;;;;0.27;0.27;;;;;;;;;;4995000;28;20249;-71
2023/03/07 12:58:37;;;;;;;0.20;0.20;;;;;;;;;;5005094;28;20222;-71
2023/03/07 13:01:06;;;;;;;0.30;0.30;;;;;;;;;;4995453;28;20267;-70
2023/03/07 13:03:37;;;;;;;0.30;0.30;;;;;;;;;;5005304;28;20205;-72
2023/03/07 13:06:04;;;;;;;0.20;0.20;;;;;;;;;;4995384;28;20242;-72
2023/03/07 13:08:30;;;;;;;0.20;0.20;;;;;;;;;;5005188;28;20206;-70
2023/03/07 13:10:56;;;;;;;0.20;0.20;;;;;;;;;;4995127;28;20297;-71
2023/03/07 13:13:44;;;;;;;0.20;0.20;;;;;;;;;;5004496;28;20209;-71
2023/03/07 13:16:12;;;;;;;0.10;0.10;;;;;;;;;;4994953;28;20329;-70
2023/03/07 13:18:39;;;;;;;0.10;0.10;;;;;;;;;;5004998;28;20217;-71
2023/03/07 13:21:26;;;;;;;0.20;0.20;;;;;;;;;;4994711;28;20269;-70
2023/03/07 13:24:24;;;;;;;0.67;0.50;;;;;;;;;;5004362;28;20241;-71
2023/03/07 13:26:53;;;;;;;0.57;0.57;;;;;;;;;;4994058;28;20258;-70
2023/03/07 13:29:35;;;;;;;0.47;0.47;;;;;;;;;;5004987;28;20229;-70
2023/03/07 13:32:03;;;;;;;0.20;0.20;;;;;;;;;;4993958;28;20313;-71
2023/03/07 13:34:45;;;;;;;0.10;0.10;;;;;;;;;;5004942;28;20278;-71
2023/03/07 13:37:30;;;;;;;0.23;0.23;;;;;;;;;;4993917;28;20237;-71
2023/03/07 13:40:01;;;;;;;0.83;0.60;;;;;;;;;;5005107;28;20201;-70
2023/03/07 13:42:46;;;;;;;0.10;0.10;;;;;;;;;;4993954;28;20278;-70
2023/03/07 13:45:27;;;;;;;0.23;0.23;;;;;;;;;;4994995;28;20212;-71
2023/03/07 13:47:55;;;;;;;0.50;0.50;;;;;;;;;;5003139;28;20457;-71
2023/03/07 13:50:39;;;;;;;0.47;0.47;;;;;;;;;;4994890;28;20301;-71
2023/03/07 13:53:11;;;;;;;0.10;0.10;;;;;;;;;;5003732;28;20467;-71
2023/03/07 13:55:45;;;;;;;0.60;0.60;;;;;;;;;;4994437;28;20241;-71
2023/03/07 13:58:23;;;;;;;0.40;0.40;;;;;;;;;;5003854;28;20209;-71
2023/03/07 14:00:51;;;;;;;0.20;0.20;;;;;;;;;;4994438;28;20264;-69
2023/03/07 14:03:24;;;;;;;0.20;0.20;;;;;;;;;;5003803;28;20244;-69
2023/03/07 14:05:51;;;;;;;0.20;0.20;;;;;;;;;;4994053;28;20316;-69
2023/03/07 14:08:18;;;;;;;0.40;0.40;;;;;;;;;;5003683;28;20241;-69
2023/03/07 14:10:45;;;;;;;0.10;0.10;;;;;;;;;;4994215;28;20262;-69
2023/03/07 14:13:33;;;;;;;0.20;0.20;;;;;;;;;;5003818;28;20289;-69
2023/03/07 14:16:14;;;;;;;0.10;0.10;;;;;;;;;;4994128;28;20317;-69
2023/03/07 14:18:47;;;;;;;0.23;0.23;;;;;;;;;;5004076;28;20197;-69
2023/03/07 14:21:19;;;;;;;0.20;0.20;;;;;;;;;;4994020;28;20243;-69
2023/03/07 14:24:01;;;;;;;0.20;0.20;;;;;;;;;;5004052;28;20751;-69
2023/03/07 14:26:32;;;;;;;0.20;0.20;;;;;;;;;;4993718;28;20455;-69
2023/03/07 14:28:59;;;;;;;0.20;0.20;;;;;;;;;;5003630;28;20200;-66
2023/03/07 14:31:27;;;;;;;0.10;0.10;;;;;;;;;;4993635;28;20242;-70
2023/03/07 14:33:56;;;;;;;0.23;0.23;;;;;;;;;;5003833;28;20510;-70
2023/03/07 14:36:23;;;;;;;0.33;0.33;;;;;;;;;;4993547;28;20246;-69
2023/03/07 14:38:50;;;;;;;0.13;0.13;;;;;;;;;;5003914;28;20206;-69
2023/03/07 14:41:25;;;;;;;0.20;0.20;;;;;;;;;;4993503;28;20247;-69
2023/03/07 14:44:00;;;;;;;0.20;0.20;;;;;;;;;;5003963;28;20453;-70
2023/03/07 14:46:31;;;;;;;0.60;0.60;;;;;;;;;;4993567;28;20241;-70
2023/03/07 14:49:08;;;;;;;0.13;0.13;;;;;;;;;;5003604;28;20225;-70
2023/03/07 14:51:37;;;;;;;0.20;0.20;;;;;;;;;;4993275;28;20285;-70